sensor_id;sensor_type;location;lat;lon;timestamp;temperature;humidity
77741;DHT22;66919;51.006;4.630;2023-02-22T00:00:47;7.50;88.60
77741;DHT22;66919;51.006;4.630;2023-02-22T00:03:16;7.30;88.90
77741;DHT22;66919;51.006;4.630;2023-02-22T00:05:43;7.30;89.30
77741;DHT22;66919;51.006;4.630;2023-02-22T00:08:19;7.50;88.30
77741;DHT22;66919;51.006;4.630;2023-02-22T00:10:45;7.60;87.00
77741;DHT22;66919;51.006;4.630;2023-02-22T00:13:12;7.30;88.70
77741;DHT22;66919;51.006;4.630;2023-02-22T00:15:40;7.40;87.90
77741;DHT22;66919;51.006;4.630;2023-02-22T00:18:13;7.10;89.20
77741;DHT22;66919;51.006;4.630;2023-02-22T00:20:39;7.20;89.80
77741;DHT22;66919;51.006;4.630;2023-02-22T00:23:08;7.50;88.40
77741;DHT22;66919;51.006;4.630;2023-02-22T00:25:37;7.40;87.80
77741;DHT22;66919;51.006;4.630;2023-02-22T00:28:03;7.50;87.50
77741;DHT22;66919;51.006;4.630;2023-02-22T00:30:30;7.80;86.70
77741;DHT22;66919;51.006;4.630;2023-02-22T00:32:57;7.90;86.00
77741;DHT22;66919;51.006;4.630;2023-02-22T00:35:25;8.00;85.60
77741;DHT22;66919;51.006;4.630;2023-02-22T00:37:55;8.20;84.50
77741;DHT22;66919;51.006;4.630;2023-02-22T00:40:25;8.30;83.70
77741;DHT22;66919;51.006;4.630;2023-02-22T00:42:52;8.50;82.70
77741;DHT22;66919;51.006;4.630;2023-02-22T00:45:21;8.60;81.40
77741;DHT22;66919;51.006;4.630;2023-02-22T00:47:51;8.60;81.60
77741;DHT22;66919;51.006;4.630;2023-02-22T00:50:18;8.60;81.30
77741;DHT22;66919;51.006;4.630;2023-02-22T00:52:47;8.40;82.30
77741;DHT22;66919;51.006;4.630;2023-02-22T00:55:26;8.30;83.20
77741;DHT22;66919;51.006;4.630;2023-02-22T00:57:54;8.30;82.50
77741;DHT22;66919;51.006;4.630;2023-02-22T01:00:23;8.40;82.20
77741;DHT22;66919;51.006;4.630;2023-02-22T01:02:50;8.10;83.40
77741;DHT22;66919;51.006;4.630;2023-02-22T01:05:19;8.10;84.30
77741;DHT22;66919;51.006;4.630;2023-02-22T01:07:48;8.10;84.10
77741;DHT22;66919;51.006;4.630;2023-02-22T01:10:16;8.10;83.80
77741;DHT22;66919;51.006;4.630;2023-02-22T01:12:43;8.20;83.30
77741;DHT22;66919;51.006;4.630;2023-02-22T01:15:10;8.30;82.90
77741;DHT22;66919;51.006;4.630;2023-02-22T01:17:39;8.20;83.20
77741;DHT22;66919;51.006;4.630;2023-02-22T01:20:08;8.20;83.40
77741;DHT22;66919;51.006;4.630;2023-02-22T01:22:46;8.30;83.00
77741;DHT22;66919;51.006;4.630;2023-02-22T01:25:18;8.10;83.30
77741;DHT22;66919;51.006;4.630;2023-02-22T01:27:48;8.00;84.80
77741;DHT22;66919;51.006;4.630;2023-02-22T01:30:19;7.80;85.00
77741;DHT22;66919;51.006;4.630;2023-02-22T01:32:45;7.30;88.10
77741;DHT22;66919;51.006;4.630;2023-02-22T01:35:15;7.30;88.00
77741;DHT22;66919;51.006;4.630;2023-02-22T01:37:43;7.30;88.50
77741;DHT22;66919;51.006;4.630;2023-02-22T01:40:16;7.20;88.50
77741;DHT22;66919;51.006;4.630;2023-02-22T01:42:43;7.50;87.10
77741;DHT22;66919;51.006;4.630;2023-02-22T01:50:48;7.40;86.70
77741;DHT22;66919;51.006;4.630;2023-02-22T01:53:19;7.30;87.30
77741;DHT22;66919;51.006;4.630;2023-02-22T01:55:49;7.10;87.40
77741;DHT22;66919;51.006;4.630;2023-02-22T01:58:16;6.70;88.70
77741;DHT22;66919;51.006;4.630;2023-02-22T02:00:43;6.70;89.90
77741;DHT22;66919;51.006;4.630;2023-02-22T02:03:25;7.10;88.00
77741;DHT22;66919;51.006;4.630;2023-02-22T02:05:55;7.00;86.80
77741;DHT22;66919;51.006;4.630;2023-02-22T02:11:26;6.80;88.70
77741;DHT22;66919;51.006;4.630;2023-02-22T02:13:55;7.00;87.30
77741;DHT22;66919;51.006;4.630;2023-02-22T02:16:25;7.10;86.90
77741;DHT22;66919;51.006;4.630;2023-02-22T02:18:52;7.20;85.90
77741;DHT22;66919;51.006;4.630;2023-02-22T02:21:35;7.30;85.20
77741;DHT22;66919;51.006;4.630;2023-02-22T02:24:43;7.50;84.30
77741;DHT22;66919;51.006;4.630;2023-02-22T02:27:21;7.50;84.60
77741;DHT22;66919;51.006;4.630;2023-02-22T02:32:50;7.30;84.10
77741;DHT22;66919;51.006;4.630;2023-02-22T02:41:14;6.30;90.30
77741;DHT22;66919;51.006;4.630;2023-02-22T02:46:28;6.60;88.80
77741;DHT22;66919;51.006;4.630;2023-02-22T02:49:06;6.70;88.40
77741;DHT22;66919;51.006;4.630;2023-02-22T02:51:39;7.00;86.70
77741;DHT22;66919;51.006;4.630;2023-02-22T02:54:06;7.20;85.80
77741;DHT22;66919;51.006;4.630;2023-02-22T02:56:33;7.20;85.40
77741;DHT22;66919;51.006;4.630;2023-02-22T02:58:59;7.40;85.10
77741;DHT22;66919;51.006;4.630;2023-02-22T03:04:36;7.40;85.20
77741;DHT22;66919;51.006;4.630;2023-02-22T03:09:37;7.50;84.30
77741;DHT22;66919;51.006;4.630;2023-02-22T03:12:16;7.60;84.00
77741;DHT22;66919;51.006;4.630;2023-02-22T03:14:57;7.50;84.50
77741;DHT22;66919;51.006;4.630;2023-02-22T03:17:45;7.50;83.70
77741;DHT22;66919;51.006;4.630;2023-02-22T03:22:55;7.10;85.20
77741;DHT22;66919;51.006;4.630;2023-02-22T03:25:29;6.60;87.10
77741;DHT22;66919;51.006;4.630;2023-02-22T03:28:02;6.40;87.90
77741;DHT22;66919;51.006;4.630;2023-02-22T03:30:51;6.30;89.00
77741;DHT22;66919;51.006;4.630;2023-02-22T03:33:24;6.20;88.50
77741;DHT22;66919;51.006;4.630;2023-02-22T03:36:02;6.40;88.90
77741;DHT22;66919;51.006;4.630;2023-02-22T03:38:31;6.40;86.70
77741;DHT22;66919;51.006;4.630;2023-02-22T03:40:59;6.50;86.80
77741;DHT22;66919;51.006;4.630;2023-02-22T03:43:42;6.30;86.40
77741;DHT22;66919;51.006;4.630;2023-02-22T03:46:10;6.30;87.00
77741;DHT22;66919;51.006;4.630;2023-02-22T03:48:46;6.60;85.90
77741;DHT22;66919;51.006;4.630;2023-02-22T03:51:14;6.70;84.40
77741;DHT22;66919;51.006;4.630;2023-02-22T03:53:42;6.80;84.00
77741;DHT22;66919;51.006;4.630;2023-02-22T03:56:12;6.80;84.10
77741;DHT22;66919;51.006;4.630;2023-02-22T03:58:41;7.00;83.50
77741;DHT22;66919;51.006;4.630;2023-02-22T04:01:12;7.00;83.20
77741;DHT22;66919;51.006;4.630;2023-02-22T04:03:38;7.10;82.60
77741;DHT22;66919;51.006;4.630;2023-02-22T04:06:04;7.10;82.00
77741;DHT22;66919;51.006;4.630;2023-02-22T04:08:30;7.20;81.10
77741;DHT22;66919;51.006;4.630;2023-02-22T04:10:56;7.30;81.10
77741;DHT22;66919;51.006;4.630;2023-02-22T04:13:22;7.20;81.20
77741;DHT22;66919;51.006;4.630;2023-02-22T04:15:47;7.20;81.20
77741;DHT22;66919;51.006;4.630;2023-02-22T04:18:13;7.20;81.10
77741;DHT22;66919;51.006;4.630;2023-02-22T04:20:39;7.20;81.10
77741;DHT22;66919;51.006;4.630;2023-02-22T04:23:05;7.20;81.30
77741;DHT22;66919;51.006;4.630;2023-02-22T04:25:31;7.10;81.50
77741;DHT22;66919;51.006;4.630;2023-02-22T04:27:57;6.90;81.50
77741;DHT22;66919;51.006;4.630;2023-02-22T04:30:23;6.60;82.90
77741;DHT22;66919;51.006;4.630;2023-02-22T04:32:48;6.30;83.70
77741;DHT22;66919;51.006;4.630;2023-02-22T04:35:14;5.90;86.20
77741;DHT22;66919;51.006;4.630;2023-02-22T04:37:40;5.60;88.20
77741;DHT22;66919;51.006;4.630;2023-02-22T04:40:06;5.50;88.90
77741;DHT22;66919;51.006;4.630;2023-02-22T04:42:34;5.80;88.30
77741;DHT22;66919;51.006;4.630;2023-02-22T04:45:00;5.90;87.40
77741;DHT22;66919;51.006;4.630;2023-02-22T04:47:26;6.10;85.40
77741;DHT22;66919;51.006;4.630;2023-02-22T04:49:51;6.00;86.00
77741;DHT22;66919;51.006;4.630;2023-02-22T04:52:17;6.20;85.00
77741;DHT22;66919;51.006;4.630;2023-02-22T04:54:43;6.50;84.10
77741;DHT22;66919;51.006;4.630;2023-02-22T04:57:09;6.60;82.60
77741;DHT22;66919;51.006;4.630;2023-02-22T04:59:34;6.50;82.80
77741;DHT22;66919;51.006;4.630;2023-02-22T05:02:00;6.50;82.50
77741;DHT22;66919;51.006;4.630;2023-02-22T05:04:26;6.20;83.50
77741;DHT22;66919;51.006;4.630;2023-02-22T05:06:51;6.20;84.70
77741;DHT22;66919;51.006;4.630;2023-02-22T05:09:18;6.00;85.40
77741;DHT22;66919;51.006;4.630;2023-02-22T05:11:43;6.00;85.10
77741;DHT22;66919;51.006;4.630;2023-02-22T05:14:09;5.70;86.40
77741;DHT22;66919;51.006;4.630;2023-02-22T05:16:35;5.60;87.30
77741;DHT22;66919;51.006;4.630;2023-02-22T05:19:01;5.80;87.20
77741;DHT22;66919;51.006;4.630;2023-02-22T05:21:26;6.00;85.30
77741;DHT22;66919;51.006;4.630;2023-02-22T05:23:52;6.20;84.80
77741;DHT22;66919;51.006;4.630;2023-02-22T05:26:17;6.50;83.20
77741;DHT22;66919;51.006;4.630;2023-02-22T05:28:43;6.60;82.20
77741;DHT22;66919;51.006;4.630;2023-02-22T05:31:09;6.50;82.40
77741;DHT22;66919;51.006;4.630;2023-02-22T05:33:35;6.50;82.80
77741;DHT22;66919;51.006;4.630;2023-02-22T05:36:00;6.60;82.40
77741;DHT22;66919;51.006;4.630;2023-02-22T05:38:26;6.80;81.00
77741;DHT22;66919;51.006;4.630;2023-02-22T05:40:52;6.80;80.80
77741;DHT22;66919;51.006;4.630;2023-02-22T05:43:18;6.80;80.10
77741;DHT22;66919;51.006;4.630;2023-02-22T05:45:43;6.80;80.20
77741;DHT22;66919;51.006;4.630;2023-02-22T05:48:09;6.80;80.10
77741;DHT22;66919;51.006;4.630;2023-02-22T05:50:34;6.80;79.90
77741;DHT22;66919;51.006;4.630;2023-02-22T05:53:01;6.60;80.10
77741;DHT22;66919;51.006;4.630;2023-02-22T05:55:26;6.50;81.20
77741;DHT22;66919;51.006;4.630;2023-02-22T05:57:52;6.50;81.30
77741;DHT22;66919;51.006;4.630;2023-02-22T06:00:24;6.60;80.60
77741;DHT22;66919;51.006;4.630;2023-02-22T06:03:09;6.60;80.20
77741;DHT22;66919;51.006;4.630;2023-02-22T06:05:36;6.50;80.40
77741;DHT22;66919;51.006;4.630;2023-02-22T06:08:04;6.50;80.40
77741;DHT22;66919;51.006;4.630;2023-02-22T06:10:30;6.50;80.10
77741;DHT22;66919;51.006;4.630;2023-02-22T06:12:57;6.50;80.30
77741;DHT22;66919;51.006;4.630;2023-02-22T06:15:24;6.40;81.10
77741;DHT22;66919;51.006;4.630;2023-02-22T06:17:51;6.30;81.30
77741;DHT22;66919;51.006;4.630;2023-02-22T06:20:20;6.40;80.90
77741;DHT22;66919;51.006;4.630;2023-02-22T06:22:47;6.40;80.70
77741;DHT22;66919;51.006;4.630;2023-02-22T06:25:15;6.50;80.20
77741;DHT22;66919;51.006;4.630;2023-02-22T06:27:41;6.60;80.00
77741;DHT22;66919;51.006;4.630;2023-02-22T06:30:09;6.50;79.80
77741;DHT22;66919;51.006;4.630;2023-02-22T06:32:35;6.50;80.30
77741;DHT22;66919;51.006;4.630;2023-02-22T06:35:00;6.50;79.90
77741;DHT22;66919;51.006;4.630;2023-02-22T06:37:26;6.10;81.70
77741;DHT22;66919;51.006;4.630;2023-02-22T06:39:52;5.80;83.70
77741;DHT22;66919;51.006;4.630;2023-02-22T06:42:17;6.00;83.10
77741;DHT22;66919;51.006;4.630;2023-02-22T06:44:43;6.00;82.80
77741;DHT22;66919;51.006;4.630;2023-02-22T06:47:09;6.40;81.20
77741;DHT22;66919;51.006;4.630;2023-02-22T06:49:34;6.40;80.40
77741;DHT22;66919;51.006;4.630;2023-02-22T06:52:00;6.50;80.10
77741;DHT22;66919;51.006;4.630;2023-02-22T06:54:26;6.50;80.00
77741;DHT22;66919;51.006;4.630;2023-02-22T06:56:51;6.60;78.90
77741;DHT22;66919;51.006;4.630;2023-02-22T06:59:17;6.40;79.70
77741;DHT22;66919;51.006;4.630;2023-02-22T07:01:43;6.50;79.70
77741;DHT22;66919;51.006;4.630;2023-02-22T07:04:09;6.10;81.10
77741;DHT22;66919;51.006;4.630;2023-02-22T07:06:35;6.30;80.90
77741;DHT22;66919;51.006;4.630;2023-02-22T07:09:02;6.50;79.60
77741;DHT22;66919;51.006;4.630;2023-02-22T07:11:27;6.60;78.70
77741;DHT22;66919;51.006;4.630;2023-02-22T07:13:53;6.70;78.90
77741;DHT22;66919;51.006;4.630;2023-02-22T07:16:19;6.70;78.60
77741;DHT22;66919;51.006;4.630;2023-02-22T07:18:45;6.70;78.50
77741;DHT22;66919;51.006;4.630;2023-02-22T07:21:11;6.60;78.60
77741;DHT22;66919;51.006;4.630;2023-02-22T07:23:37;6.70;78.30
77741;DHT22;66919;51.006;4.630;2023-02-22T07:26:03;6.90;77.80
77741;DHT22;66919;51.006;4.630;2023-02-22T07:28:30;6.90;77.30
77741;DHT22;66919;51.006;4.630;2023-02-22T07:30:55;6.90;77.30
77741;DHT22;66919;51.006;4.630;2023-02-22T07:33:21;6.90;77.00
77741;DHT22;66919;51.006;4.630;2023-02-22T07:35:48;6.70;77.90
77741;DHT22;66919;51.006;4.630;2023-02-22T07:38:16;6.40;79.70
77741;DHT22;66919;51.006;4.630;2023-02-22T07:40:42;6.60;79.40
77741;DHT22;66919;51.006;4.630;2023-02-22T07:43:22;6.70;79.50
77741;DHT22;66919;51.006;4.630;2023-02-22T07:45:50;6.70;78.60
77741;DHT22;66919;51.006;4.630;2023-02-22T07:48:17;6.30;80.00
77741;DHT22;66919;51.006;4.630;2023-02-22T07:50:43;6.00;82.10
77741;DHT22;66919;51.006;4.630;2023-02-22T07:53:15;6.20;81.30
77741;DHT22;66919;51.006;4.630;2023-02-22T07:55:42;6.60;79.70
77741;DHT22;66919;51.006;4.630;2023-02-22T07:58:11;6.90;78.10
77741;DHT22;66919;51.006;4.630;2023-02-22T08:00:38;7.10;76.80
77741;DHT22;66919;51.006;4.630;2023-02-22T08:03:07;7.30;76.70
77741;DHT22;66919;51.006;4.630;2023-02-22T08:05:34;7.20;76.70
77741;DHT22;66919;51.006;4.630;2023-02-22T08:08:00;7.30;76.00
77741;DHT22;66919;51.006;4.630;2023-02-22T08:10:27;7.50;76.20
77741;DHT22;66919;51.006;4.630;2023-02-22T08:12:53;7.60;75.20
77741;DHT22;66919;51.006;4.630;2023-02-22T08:15:30;7.70;74.90
77741;DHT22;66919;51.006;4.630;2023-02-22T08:17:57;7.80;74.80
77741;DHT22;66919;51.006;4.630;2023-02-22T08:20:23;8.00;73.80
77741;DHT22;66919;51.006;4.630;2023-02-22T08:22:49;8.20;73.40
77741;DHT22;66919;51.006;4.630;2023-02-22T08:25:17;8.20;72.90
77741;DHT22;66919;51.006;4.630;2023-02-22T08:27:43;8.20;73.20
77741;DHT22;66919;51.006;4.630;2023-02-22T08:30:17;8.50;73.10
77741;DHT22;66919;51.006;4.630;2023-02-22T08:32:47;8.60;72.60
77741;DHT22;66919;51.006;4.630;2023-02-22T08:35:14;8.60;72.50
77741;DHT22;66919;51.006;4.630;2023-02-22T08:37:50;8.80;72.60
77741;DHT22;66919;51.006;4.630;2023-02-22T08:40:19;8.60;74.00
77741;DHT22;66919;51.006;4.630;2023-02-22T08:42:45;8.60;73.30
77741;DHT22;66919;51.006;4.630;2023-02-22T08:45:11;8.90;72.90
77741;DHT22;66919;51.006;4.630;2023-02-22T08:47:38;9.00;72.10
77741;DHT22;66919;51.006;4.630;2023-02-22T08:50:04;9.10;71.40
77741;DHT22;66919;51.006;4.630;2023-02-22T08:52:30;9.20;71.50
77741;DHT22;66919;51.006;4.630;2023-02-22T08:54:56;9.30;70.50
77741;DHT22;66919;51.006;4.630;2023-02-22T08:57:22;9.40;70.90
77741;DHT22;66919;51.006;4.630;2023-02-22T08:59:47;9.50;71.30
77741;DHT22;66919;51.006;4.630;2023-02-22T09:02:19;9.40;70.80
77741;DHT22;66919;51.006;4.630;2023-02-22T09:04:45;9.60;70.50
77741;DHT22;66919;51.006;4.630;2023-02-22T09:07:11;9.70;70.80
77741;DHT22;66919;51.006;4.630;2023-02-22T09:09:37;9.90;70.50
77741;DHT22;66919;51.006;4.630;2023-02-22T09:12:03;9.90;70.70
77741;DHT22;66919;51.006;4.630;2023-02-22T09:14:28;10.00;70.60
77741;DHT22;66919;51.006;4.630;2023-02-22T09:16:54;10.20;69.70
77741;DHT22;66919;51.006;4.630;2023-02-22T09:19:20;10.50;69.10
77741;DHT22;66919;51.006;4.630;2023-02-22T09:21:52;10.60;69.20
77741;DHT22;66919;51.006;4.630;2023-02-22T09:24:17;10.60;68.60
77741;DHT22;66919;51.006;4.630;2023-02-22T09:26:46;10.70;68.80
77741;DHT22;66919;51.006;4.630;2023-02-22T09:29:16;10.70;68.80
77741;DHT22;66919;51.006;4.630;2023-02-22T09:31:42;10.90;68.40
77741;DHT22;66919;51.006;4.630;2023-02-22T09:34:08;10.90;68.30
77741;DHT22;66919;51.006;4.630;2023-02-22T09:36:48;10.90;68.40
77741;DHT22;66919;51.006;4.630;2023-02-22T09:39:16;11.00;68.30
77741;DHT22;66919;51.006;4.630;2023-02-22T09:44:49;11.10;68.00
77741;DHT22;66919;51.006;4.630;2023-02-22T09:47:22;11.20;67.80
77741;DHT22;66919;51.006;4.630;2023-02-22T09:50:19;11.10;67.90
77741;DHT22;66919;51.006;4.630;2023-02-22T09:52:59;11.10;68.50
77741;DHT22;66919;51.006;4.630;2023-02-22T09:55:44;11.00;69.40
77741;DHT22;66919;51.006;4.630;2023-02-22T09:58:34;11.00;70.10
77741;DHT22;66919;51.006;4.630;2023-02-22T10:06:59;11.00;72.60
77741;DHT22;66919;51.006;4.630;2023-02-22T10:09:31;11.00;73.10
77741;DHT22;66919;51.006;4.630;2023-02-22T10:12:14;11.10;73.40
77741;DHT22;66919;51.006;4.630;2023-02-22T10:17:39;11.20;73.10
77741;DHT22;66919;51.006;4.630;2023-02-22T10:25:58;11.60;72.30
77741;DHT22;66919;51.006;4.630;2023-02-22T10:28:33;11.60;72.50
77741;DHT22;66919;51.006;4.630;2023-02-22T10:31:03;11.60;73.20
77741;DHT22;66919;51.006;4.630;2023-02-22T10:33:53;11.60;73.50
77741;DHT22;66919;51.006;4.630;2023-02-22T10:36:21;11.70;72.40
77741;DHT22;66919;51.006;4.630;2023-02-22T10:38:53;11.80;71.60
77741;DHT22;66919;51.006;4.630;2023-02-22T10:41:29;11.90;71.80
77741;DHT22;66919;51.006;4.630;2023-02-22T10:43:55;12.00;71.50
77741;DHT22;66919;51.006;4.630;2023-02-22T10:46:22;12.00;70.90
77741;DHT22;66919;51.006;4.630;2023-02-22T10:48:51;12.10;71.00
77741;DHT22;66919;51.006;4.630;2023-02-22T10:51:18;12.00;71.40
77741;DHT22;66919;51.006;4.630;2023-02-22T10:53:54;11.90;71.70
77741;DHT22;66919;51.006;4.630;2023-02-22T10:56:23;12.20;71.10
77741;DHT22;66919;51.006;4.630;2023-02-22T10:59:00;12.30;70.90
77741;DHT22;66919;51.006;4.630;2023-02-22T11:01:37;12.50;70.30
77741;DHT22;66919;51.006;4.630;2023-02-22T11:04:12;12.70;69.60
77741;DHT22;66919;51.006;4.630;2023-02-22T11:06:40;12.90;69.70
77741;DHT22;66919;51.006;4.630;2023-02-22T11:09:10;13.10;69.00
77741;DHT22;66919;51.006;4.630;2023-02-22T11:11:38;13.30;68.40
77741;DHT22;66919;51.006;4.630;2023-02-22T11:14:04;13.50;68.40
77741;DHT22;66919;51.006;4.630;2023-02-22T11:16:50;13.50;67.20
77741;DHT22;66919;51.006;4.630;2023-02-22T11:19:18;13.70;67.20
77741;DHT22;66919;51.006;4.630;2023-02-22T11:21:46;13.70;66.20
77741;DHT22;66919;51.006;4.630;2023-02-22T11:24:14;13.80;66.20
77741;DHT22;66919;51.006;4.630;2023-02-22T11:26:55;13.90;65.50
77741;DHT22;66919;51.006;4.630;2023-02-22T11:29:31;14.00;66.00
77741;DHT22;66919;51.006;4.630;2023-02-22T11:32:01;14.10;65.00
77741;DHT22;66919;51.006;4.630;2023-02-22T11:34:37;14.10;65.10
77741;DHT22;66919;51.006;4.630;2023-02-22T11:37:28;14.30;64.30
77741;DHT22;66919;51.006;4.630;2023-02-22T11:42:47;14.50;63.80
77741;DHT22;66919;51.006;4.630;2023-02-22T11:45:16;14.60;63.40
77741;DHT22;66919;51.006;4.630;2023-02-22T11:52:50;14.60;63.40
77741;DHT22;66919;51.006;4.630;2023-02-22T11:55:42;14.50;63.70
77741;DHT22;66919;51.006;4.630;2023-02-22T11:59:02;14.40;64.20
77741;DHT22;66919;51.006;4.630;2023-02-22T12:07:39;14.30;65.40
77741;DHT22;66919;51.006;4.630;2023-02-22T12:18:46;14.50;65.30
77741;DHT22;66919;51.006;4.630;2023-02-22T12:21:19;14.60;65.10
77741;DHT22;66919;51.006;4.630;2023-02-22T12:26:33;14.80;65.00
77741;DHT22;66919;51.006;4.630;2023-02-22T12:29:30;15.10;63.90
77741;DHT22;66919;51.006;4.630;2023-02-22T12:32:15;15.20;63.00
77741;DHT22;66919;51.006;4.630;2023-02-22T12:34:50;15.10;62.50
77741;DHT22;66919;51.006;4.630;2023-02-22T12:37:33;15.10;63.10
77741;DHT22;66919;51.006;4.630;2023-02-22T12:40:15;15.00;62.30
77741;DHT22;66919;51.006;4.630;2023-02-22T12:45:31;14.90;62.90
77741;DHT22;66919;51.006;4.630;2023-02-22T12:48:29;14.90;63.30
77741;DHT22;66919;51.006;4.630;2023-02-22T12:51:27;14.90;62.60
77741;DHT22;66919;51.006;4.630;2023-02-22T12:54:27;14.90;62.70
77741;DHT22;66919;51.006;4.630;2023-02-22T12:59:56;15.00;63.10
77741;DHT22;66919;51.006;4.630;2023-02-22T13:05:15;15.30;62.50
77741;DHT22;66919;51.006;4.630;2023-02-22T13:18:18;15.20;63.50
77741;DHT22;66919;51.006;4.630;2023-02-22T13:26:25;15.30;62.10
77741;DHT22;66919;51.006;4.630;2023-02-22T13:29:12;15.20;62.60
77741;DHT22;66919;51.006;4.630;2023-02-22T13:45:47;15.40;62.30
77741;DHT22;66919;51.006;4.630;2023-02-22T13:53:46;15.20;63.70
77741;DHT22;66919;51.006;4.630;2023-02-22T13:56:13;15.10;64.00
77741;DHT22;66919;51.006;4.630;2023-02-22T13:58:54;15.10;64.00
77741;DHT22;66919;51.006;4.630;2023-02-22T14:01:47;15.00;64.90
77741;DHT22;66919;51.006;4.630;2023-02-22T14:06:58;14.70;65.80
77741;DHT22;66919;51.006;4.630;2023-02-22T14:09:47;14.40;66.40
77741;DHT22;66919;51.006;4.630;2023-02-22T14:17:48;13.90;68.40
77741;DHT22;66919;51.006;4.630;2023-02-22T14:20:19;13.90;70.70
77741;DHT22;66919;51.006;4.630;2023-02-22T14:22:47;13.80;67.70
77741;DHT22;66919;51.006;4.630;2023-02-22T14:25:35;13.80;68.80
77741;DHT22;66919;51.006;4.630;2023-02-22T14:28:03;13.80;68.60
77741;DHT22;66919;51.006;4.630;2023-02-22T14:30:32;13.80;68.30
77741;DHT22;66919;51.006;4.630;2023-02-22T14:32:59;13.90;68.90
77741;DHT22;66919;51.006;4.630;2023-02-22T14:35:35;13.90;68.90
77741;DHT22;66919;51.006;4.630;2023-02-22T14:38:04;13.90;68.40
77741;DHT22;66919;51.006;4.630;2023-02-22T14:40:34;13.80;68.50
77741;DHT22;66919;51.006;4.630;2023-02-22T14:45:45;13.60;69.20
77741;DHT22;66919;51.006;4.630;2023-02-22T14:48:26;13.60;69.40
77741;DHT22;66919;51.006;4.630;2023-02-22T14:50:59;13.50;70.50
77741;DHT22;66919;51.006;4.630;2023-02-22T14:53:50;13.50;70.80
77741;DHT22;66919;51.006;4.630;2023-02-22T14:59:12;13.50;70.10
77741;DHT22;66919;51.006;4.630;2023-02-22T15:01:39;13.50;70.20
77741;DHT22;66919;51.006;4.630;2023-02-22T15:04:25;13.50;69.60
77741;DHT22;66919;51.006;4.630;2023-02-22T15:06:54;13.60;70.10
77741;DHT22;66919;51.006;4.630;2023-02-22T15:09:29;13.70;69.40
77741;DHT22;66919;51.006;4.630;2023-02-22T15:14:28;13.70;69.50
77741;DHT22;66919;51.006;4.630;2023-02-22T15:16:58;13.50;68.80
77741;DHT22;66919;51.006;4.630;2023-02-22T15:19:27;13.40;70.10
77741;DHT22;66919;51.006;4.630;2023-02-22T15:21:55;13.50;70.10
77741;DHT22;66919;51.006;4.630;2023-02-22T15:24:29;13.20;70.80
77741;DHT22;66919;51.006;4.630;2023-02-22T15:27:05;13.20;72.20
77741;DHT22;66919;51.006;4.630;2023-02-22T15:29:35;13.30;70.90
77741;DHT22;66919;51.006;4.630;2023-02-22T15:32:01;13.20;72.20
77741;DHT22;66919;51.006;4.630;2023-02-22T15:34:31;13.20;71.20
77741;DHT22;66919;51.006;4.630;2023-02-22T15:37:17;13.30;71.80
77741;DHT22;66919;51.006;4.630;2023-02-22T15:39:43;13.20;71.80
77741;DHT22;66919;51.006;4.630;2023-02-22T15:42:12;13.20;71.20
77741;DHT22;66919;51.006;4.630;2023-02-22T15:44:47;13.30;71.30
77741;DHT22;66919;51.006;4.630;2023-02-22T15:47:19;13.20;72.00
77741;DHT22;66919;51.006;4.630;2023-02-22T15:50:12;13.00;71.20
77741;DHT22;66919;51.006;4.630;2023-02-22T15:52:32;13.00;71.90
77741;DHT22;66919;51.006;4.630;2023-02-22T15:54:58;13.00;71.80
77741;DHT22;66919;51.006;4.630;2023-02-22T15:57:24;13.00;72.70
77741;DHT22;66919;51.006;4.630;2023-02-22T15:59:54;12.80;72.10
77741;DHT22;66919;51.006;4.630;2023-02-22T16:02:36;12.70;72.90
77741;DHT22;66919;51.006;4.630;2023-02-22T16:05:09;12.60;74.10
77741;DHT22;66919;51.006;4.630;2023-02-22T16:07:42;12.60;73.30
77741;DHT22;66919;51.006;4.630;2023-02-22T16:10:27;12.70;72.70
77741;DHT22;66919;51.006;4.630;2023-02-22T16:13:21;12.70;73.40
77741;DHT22;66919;51.006;4.630;2023-02-22T16:16:18;12.90;71.90
77741;DHT22;66919;51.006;4.630;2023-02-22T16:18:46;12.80;73.70
77741;DHT22;66919;51.006;4.630;2023-02-22T16:21:13;12.60;72.00
77741;DHT22;66919;51.006;4.630;2023-02-22T16:23:45;12.50;73.90
77741;DHT22;66919;51.006;4.630;2023-02-22T16:26:32;12.40;73.30
77741;DHT22;66919;51.006;4.630;2023-02-22T16:29:05;12.50;73.10
77741;DHT22;66919;51.006;4.630;2023-02-22T16:31:36;12.60;72.60
77741;DHT22;66919;51.006;4.630;2023-02-22T16:34:05;12.50;73.10
77741;DHT22;66919;51.006;4.630;2023-02-22T16:36:46;12.40;73.80
77741;DHT22;66919;51.006;4.630;2023-02-22T16:39:21;12.40;73.10
77741;DHT22;66919;51.006;4.630;2023-02-22T16:41:49;12.20;73.90
77741;DHT22;66919;51.006;4.630;2023-02-22T16:44:16;12.20;74.00
77741;DHT22;66919;51.006;4.630;2023-02-22T16:46:42;12.20;74.20
77741;DHT22;66919;51.006;4.630;2023-02-22T16:49:10;12.30;73.60
77741;DHT22;66919;51.006;4.630;2023-02-22T16:51:58;12.30;73.70
77741;DHT22;66919;51.006;4.630;2023-02-22T16:54:28;12.50;73.30
77741;DHT22;66919;51.006;4.630;2023-02-22T16:56:55;12.40;73.50
77741;DHT22;66919;51.006;4.630;2023-02-22T16:59:22;12.40;73.10
77741;DHT22;66919;51.006;4.630;2023-02-22T17:01:48;12.30;73.60
77741;DHT22;66919;51.006;4.630;2023-02-22T17:04:20;12.20;74.70
77741;DHT22;66919;51.006;4.630;2023-02-22T17:06:46;12.30;73.90
77741;DHT22;66919;51.006;4.630;2023-02-22T17:09:13;12.30;73.90
77741;DHT22;66919;51.006;4.630;2023-02-22T17:11:41;12.30;73.80
77741;DHT22;66919;51.006;4.630;2023-02-22T17:14:08;12.30;73.50
77741;DHT22;66919;51.006;4.630;2023-02-22T17:16:34;12.40;73.40
77741;DHT22;66919;51.006;4.630;2023-02-22T17:19:00;12.50;73.10
77741;DHT22;66919;51.006;4.630;2023-02-22T17:21:29;12.60;72.60
77741;DHT22;66919;51.006;4.630;2023-02-22T17:23:55;12.50;72.90
77741;DHT22;66919;51.006;4.630;2023-02-22T17:26:21;12.40;73.20
77741;DHT22;66919;51.006;4.630;2023-02-22T17:28:46;12.40;73.70
77741;DHT22;66919;51.006;4.630;2023-02-22T17:31:20;12.20;74.10
77741;DHT22;66919;51.006;4.630;2023-02-22T17:33:46;12.20;74.40
77741;DHT22;66919;51.006;4.630;2023-02-22T17:36:12;12.20;74.40
77741;DHT22;66919;51.006;4.630;2023-02-22T17:38:38;12.30;74.00
77741;DHT22;66919;51.006;4.630;2023-02-22T17:41:06;12.40;73.40
77741;DHT22;66919;51.006;4.630;2023-02-22T17:43:32;12.40;73.30
77741;DHT22;66919;51.006;4.630;2023-02-22T17:45:58;12.40;73.70
77741;DHT22;66919;51.006;4.630;2023-02-22T17:48:24;12.30;74.00
77741;DHT22;66919;51.006;4.630;2023-02-22T17:50:50;12.20;74.40
77741;DHT22;66919;51.006;4.630;2023-02-22T17:53:17;12.30;74.30
77741;DHT22;66919;51.006;4.630;2023-02-22T17:55:46;12.40;74.00
77741;DHT22;66919;51.006;4.630;2023-02-22T17:58:13;12.40;73.90
77741;DHT22;66919;51.006;4.630;2023-02-22T18:00:44;12.40;74.10
77741;DHT22;66919;51.006;4.630;2023-02-22T18:03:13;12.30;74.80
77741;DHT22;66919;51.006;4.630;2023-02-22T18:05:45;12.10;75.80
77741;DHT22;66919;51.006;4.630;2023-02-22T18:08:13;12.20;75.80
77741;DHT22;66919;51.006;4.630;2023-02-22T18:10:40;12.20;75.60
77741;DHT22;66919;51.006;4.630;2023-02-22T18:13:13;12.10;76.10